sensor_id;sensor_type;location;lat;lon;timestamp;temperature;humidity
5938;DHT22;2994;51.220;4.412;2022-07-29T00:02:06;22.14;45.47
5938;DHT22;2994;51.220;4.412;2022-07-29T00:04:34;22.10;45.50
5938;DHT22;2994;51.220;4.412;2022-07-29T00:07:00;22.07;45.86
5938;DHT22;2994;51.220;4.412;2022-07-29T00:09:25;22.07;45.75
5938;DHT22;2994;51.220;4.412;2022-07-29T00:11:51;22.04;45.10
5938;DHT22;2994;51.220;4.412;2022-07-29T00:14:16;22.04;44.90
5938;DHT22;2994;51.220;4.412;2022-07-29T00:16:42;22.06;46.54
5938;DHT22;2994;51.220;4.412;2022-07-29T00:19:07;22.05;45.99
5938;DHT22;2994;51.220;4.412;2022-07-29T00:21:32;22.03;45.24
5938;DHT22;2994;51.220;4.412;2022-07-29T00:23:58;22.03;45.97
5938;DHT22;2994;51.220;4.412;2022-07-29T00:26:23;21.99;46.09
5938;DHT22;2994;51.220;4.412;2022-07-29T00:28:49;21.96;47.12
5938;DHT22;2994;51.220;4.412;2022-07-29T00:31:14;21.93;45.26
5938;DHT22;2994;51.220;4.412;2022-07-29T00:33:40;21.93;46.23
5938;DHT22;2994;51.220;4.412;2022-07-29T00:36:05;21.91;45.84
5938;DHT22;2994;51.220;4.412;2022-07-29T00:38:31;21.89;45.86
5938;DHT22;2994;51.220;4.412;2022-07-29T00:40:56;21.89;46.22
5938;DHT22;2994;51.220;4.412;2022-07-29T00:43:22;21.88;45.55
5938;DHT22;2994;51.220;4.412;2022-07-29T00:45:47;21.87;45.33
5938;DHT22;2994;51.220;4.412;2022-07-29T00:48:12;21.83;45.45
5938;DHT22;2994;51.220;4.412;2022-07-29T00:50:38;21.83;45.57
5938;DHT22;2994;51.220;4.412;2022-07-29T00:53:05;21.81;46.13
5938;DHT22;2994;51.220;4.412;2022-07-29T00:55:31;21.80;46.63
5938;DHT22;2994;51.220;4.412;2022-07-29T00:57:58;21.80;46.21
5938;DHT22;2994;51.220;4.412;2022-07-29T01:00:26;21.75;46.41
5938;DHT22;2994;51.220;4.412;2022-07-29T01:02:52;21.75;46.73
5938;DHT22;2994;51.220;4.412;2022-07-29T01:05:19;21.74;46.71
5938;DHT22;2994;51.220;4.412;2022-07-29T01:07:49;21.70;46.57
5938;DHT22;2994;51.220;4.412;2022-07-29T01:10:16;21.69;47.69
5938;DHT22;2994;51.220;4.412;2022-07-29T01:12:44;21.68;47.09
5938;DHT22;2994;51.220;4.412;2022-07-29T01:15:11;21.65;46.96
5938;DHT22;2994;51.220;4.412;2022-07-29T01:17:43;21.66;48.18
5938;DHT22;2994;51.220;4.412;2022-07-29T01:23:15;21.58;48.02
5938;DHT22;2994;51.220;4.412;2022-07-29T01:31:04;21.47;48.08
5938;DHT22;2994;51.220;4.412;2022-07-29T01:33:34;21.46;48.28
5938;DHT22;2994;51.220;4.412;2022-07-29T01:36:23;21.39;47.88
5938;DHT22;2994;51.220;4.412;2022-07-29T01:39:02;21.37;48.18
5938;DHT22;2994;51.220;4.412;2022-07-29T01:41:32;21.38;48.69
5938;DHT22;2994;51.220;4.412;2022-07-29T01:44:07;21.35;48.47
5938;DHT22;2994;51.220;4.412;2022-07-29T01:46:38;21.36;48.96
5938;DHT22;2994;51.220;4.412;2022-07-29T01:49:16;21.35;48.54
5938;DHT22;2994;51.220;4.412;2022-07-29T01:52:00;21.32;48.56
5938;DHT22;2994;51.220;4.412;2022-07-29T01:54:35;21.34;49.00
5938;DHT22;2994;51.220;4.412;2022-07-29T01:57:03;21.33;48.19
5938;DHT22;2994;51.220;4.412;2022-07-29T01:59:31;21.28;48.46
5938;DHT22;2994;51.220;4.412;2022-07-29T02:01:58;21.30;49.50
5938;DHT22;2994;51.220;4.412;2022-07-29T02:04:24;21.28;49.24
5938;DHT22;2994;51.220;4.412;2022-07-29T02:06:52;21.25;49.36
5938;DHT22;2994;51.220;4.412;2022-07-29T02:09:20;21.23;49.87
5938;DHT22;2994;51.220;4.412;2022-07-29T02:11:52;21.19;48.78
5938;DHT22;2994;51.220;4.412;2022-07-29T02:14:21;21.16;49.44
5938;DHT22;2994;51.220;4.412;2022-07-29T02:16:53;21.14;49.40
5938;DHT22;2994;51.220;4.412;2022-07-29T02:19:21;21.10;49.53
5938;DHT22;2994;51.220;4.412;2022-07-29T02:21:49;21.04;50.03
5938;DHT22;2994;51.220;4.412;2022-07-29T02:24:17;21.05;50.45
5938;DHT22;2994;51.220;4.412;2022-07-29T02:26:44;21.03;50.14
5938;DHT22;2994;51.220;4.412;2022-07-29T02:29:10;20.99;50.34
5938;DHT22;2994;51.220;4.412;2022-07-29T02:31:37;20.96;50.06
5938;DHT22;2994;51.220;4.412;2022-07-29T02:34:06;20.94;50.68
5938;DHT22;2994;51.220;4.412;2022-07-29T02:36:33;20.91;50.56
5938;DHT22;2994;51.220;4.412;2022-07-29T02:39:00;20.86;50.60
5938;DHT22;2994;51.220;4.412;2022-07-29T02:44:03;20.78;50.72
5938;DHT22;2994;51.220;4.412;2022-07-29T02:46:35;20.76;51.06
5938;DHT22;2994;51.220;4.412;2022-07-29T02:49:31;20.76;50.92
5938;DHT22;2994;51.220;4.412;2022-07-29T02:52:02;20.72;51.36
5938;DHT22;2994;51.220;4.412;2022-07-29T02:54:46;20.71;51.33
5938;DHT22;2994;51.220;4.412;2022-07-29T02:57:35;20.65;51.18
5938;DHT22;2994;51.220;4.412;2022-07-29T03:00:06;20.64;51.34
5938;DHT22;2994;51.220;4.412;2022-07-29T03:02:40;20.60;51.41
5938;DHT22;2994;51.220;4.412;2022-07-29T03:05:09;20.61;51.82
5938;DHT22;2994;51.220;4.412;2022-07-29T03:07:36;20.59;52.20
5938;DHT22;2994;51.220;4.412;2022-07-29T03:10:03;20.57;52.27
5938;DHT22;2994;51.220;4.412;2022-07-29T03:12:30;20.56;52.44
5938;DHT22;2994;51.220;4.412;2022-07-29T03:14:56;20.55;52.40
5938;DHT22;2994;51.220;4.412;2022-07-29T03:17:22;20.53;51.69
5938;DHT22;2994;51.220;4.412;2022-07-29T03:19:48;20.48;51.91
5938;DHT22;2994;51.220;4.412;2022-07-29T03:22:14;20.50;52.60
5938;DHT22;2994;51.220;4.412;2022-07-29T03:24:39;20.46;52.49
5938;DHT22;2994;51.220;4.412;2022-07-29T03:27:05;20.43;52.27
5938;DHT22;2994;51.220;4.412;2022-07-29T03:29:31;20.42;52.07
5938;DHT22;2994;51.220;4.412;2022-07-29T03:31:57;20.41;52.51
5938;DHT22;2994;51.220;4.412;2022-07-29T03:34:22;20.37;52.40
5938;DHT22;2994;51.220;4.412;2022-07-29T03:36:48;20.35;52.64
5938;DHT22;2994;51.220;4.412;2022-07-29T03:39:18;20.32;53.23
5938;DHT22;2994;51.220;4.412;2022-07-29T03:41:47;20.30;52.77
5938;DHT22;2994;51.220;4.412;2022-07-29T03:44:13;20.32;53.23
5938;DHT22;2994;51.220;4.412;2022-07-29T03:46:41;20.28;53.06
5938;DHT22;2994;51.220;4.412;2022-07-29T03:49:08;20.30;53.72
5938;DHT22;2994;51.220;4.412;2022-07-29T03:51:34;20.29;53.36
5938;DHT22;2994;51.220;4.412;2022-07-29T03:54:04;20.28;52.98
5938;DHT22;2994;51.220;4.412;2022-07-29T03:56:32;20.25;53.17
5938;DHT22;2994;51.220;4.412;2022-07-29T03:58:58;20.26;53.34
5938;DHT22;2994;51.220;4.412;2022-07-29T04:01:24;20.21;53.60
5938;DHT22;2994;51.220;4.412;2022-07-29T04:03:51;20.20;53.81
5938;DHT22;2994;51.220;4.412;2022-07-29T04:06:16;20.18;53.56
5938;DHT22;2994;51.220;4.412;2022-07-29T04:08:42;20.16;53.97
5938;DHT22;2994;51.220;4.412;2022-07-29T04:11:07;20.14;54.16
5938;DHT22;2994;51.220;4.412;2022-07-29T04:13:33;20.12;53.91
5938;DHT22;2994;51.220;4.412;2022-07-29T04:15:58;20.10;54.58
5938;DHT22;2994;51.220;4.412;2022-07-29T04:18:24;20.06;54.65
5938;DHT22;2994;51.220;4.412;2022-07-29T04:20:49;20.04;54.39
5938;DHT22;2994;51.220;4.412;2022-07-29T04:23:15;20.06;54.91
5938;DHT22;2994;51.220;4.412;2022-07-29T04:25:41;20.02;54.83
5938;DHT22;2994;51.220;4.412;2022-07-29T04:28:08;20.02;54.84
5938;DHT22;2994;51.220;4.412;2022-07-29T04:30:35;20.00;54.49
5938;DHT22;2994;51.220;4.412;2022-07-29T04:33:01;19.99;55.14
5938;DHT22;2994;51.220;4.412;2022-07-29T04:35:33;20.03;55.04
5938;DHT22;2994;51.220;4.412;2022-07-29T04:37:59;20.00;55.24
5938;DHT22;2994;51.220;4.412;2022-07-29T04:40:24;19.98;54.77
5938;DHT22;2994;51.220;4.412;2022-07-29T04:42:50;19.97;55.21
5938;DHT22;2994;51.220;4.412;2022-07-29T04:45:15;19.98;54.63
5938;DHT22;2994;51.220;4.412;2022-07-29T04:47:41;19.98;55.40
5938;DHT22;2994;51.220;4.412;2022-07-29T04:50:07;19.94;55.27
5938;DHT22;2994;51.220;4.412;2022-07-29T04:52:33;19.94;55.44
5938;DHT22;2994;51.220;4.412;2022-07-29T04:55:00;19.88;55.71
5938;DHT22;2994;51.220;4.412;2022-07-29T04:57:25;19.88;55.49
5938;DHT22;2994;51.220;4.412;2022-07-29T04:59:51;19.85;55.81
5938;DHT22;2994;51.220;4.412;2022-07-29T05:02:16;19.86;55.83
5938;DHT22;2994;51.220;4.412;2022-07-29T05:04:42;19.86;55.87
5938;DHT22;2994;51.220;4.412;2022-07-29T05:07:07;19.80;55.84
5938;DHT22;2994;51.220;4.412;2022-07-29T05:09:32;19.86;55.88
5938;DHT22;2994;51.220;4.412;2022-07-29T05:11:58;19.82;55.68
5938;DHT22;2994;51.220;4.412;2022-07-29T05:14:23;19.85;55.60
5938;DHT22;2994;51.220;4.412;2022-07-29T05:16:49;19.84;55.87
5938;DHT22;2994;51.220;4.412;2022-07-29T05:19:16;19.86;55.42
5938;DHT22;2994;51.220;4.412;2022-07-29T05:21:42;19.86;55.60
5938;DHT22;2994;51.220;4.412;2022-07-29T05:24:07;19.89;55.65
5938;DHT22;2994;51.220;4.412;2022-07-29T05:26:33;19.86;56.63
5938;DHT22;2994;51.220;4.412;2022-07-29T05:28:58;19.84;56.36
5938;DHT22;2994;51.220;4.412;2022-07-29T05:31:24;19.84;56.66
5938;DHT22;2994;51.220;4.412;2022-07-29T05:33:49;19.87;57.14
5938;DHT22;2994;51.220;4.412;2022-07-29T05:36:15;19.85;57.22
5938;DHT22;2994;51.220;4.412;2022-07-29T05:38:40;19.87;57.00
5938;DHT22;2994;51.220;4.412;2022-07-29T05:41:05;19.91;56.16
5938;DHT22;2994;51.220;4.412;2022-07-29T05:43:31;19.91;56.47
5938;DHT22;2994;51.220;4.412;2022-07-29T05:45:57;19.98;56.05
5938;DHT22;2994;51.220;4.412;2022-07-29T05:48:23;20.00;55.64
5938;DHT22;2994;51.220;4.412;2022-07-29T05:50:48;20.03;56.00
5938;DHT22;2994;51.220;4.412;2022-07-29T05:53:14;20.05;56.83
5938;DHT22;2994;51.220;4.412;2022-07-29T05:55:39;20.09;56.37
5938;DHT22;2994;51.220;4.412;2022-07-29T05:58:05;20.10;55.72
5938;DHT22;2994;51.220;4.412;2022-07-29T06:00:30;20.13;55.59
5938;DHT22;2994;51.220;4.412;2022-07-29T06:02:56;20.20;56.29
5938;DHT22;2994;51.220;4.412;2022-07-29T06:05:22;20.29;55.90
5938;DHT22;2994;51.220;4.412;2022-07-29T06:07:47;20.33;55.93
5938;DHT22;2994;51.220;4.412;2022-07-29T06:10:13;20.42;56.52
5938;DHT22;2994;51.220;4.412;2022-07-29T06:12:38;20.49;55.71
5938;DHT22;2994;51.220;4.412;2022-07-29T06:15:04;20.54;55.35
5938;DHT22;2994;51.220;4.412;2022-07-29T06:17:30;20.62;55.90
5938;DHT22;2994;51.220;4.412;2022-07-29T06:19:55;20.70;55.34
5938;DHT22;2994;51.220;4.412;2022-07-29T06:22:20;20.77;54.81
5938;DHT22;2994;51.220;4.412;2022-07-29T06:24:46;20.81;54.75
5938;DHT22;2994;51.220;4.412;2022-07-29T06:27:11;20.81;54.06
5938;DHT22;2994;51.220;4.412;2022-07-29T06:29:37;20.79;54.83
5938;DHT22;2994;51.220;4.412;2022-07-29T06:32:03;20.79;54.82
5938;DHT22;2994;51.220;4.412;2022-07-29T06:34:28;20.79;55.09
5938;DHT22;2994;51.220;4.412;2022-07-29T06:36:54;20.78;54.77
5938;DHT22;2994;51.220;4.412;2022-07-29T06:39:20;20.79;55.47
5938;DHT22;2994;51.220;4.412;2022-07-29T06:41:49;20.79;55.91
5938;DHT22;2994;51.220;4.412;2022-07-29T06:44:15;20.79;55.81
5938;DHT22;2994;51.220;4.412;2022-07-29T06:46:41;20.85;54.33
5938;DHT22;2994;51.220;4.412;2022-07-29T06:49:07;20.81;54.87
5938;DHT22;2994;51.220;4.412;2022-07-29T06:51:33;20.85;55.40
5938;DHT22;2994;51.220;4.412;2022-07-29T06:53:59;20.83;54.37
5938;DHT22;2994;51.220;4.412;2022-07-29T06:56:24;20.88;53.81
5938;DHT22;2994;51.220;4.412;2022-07-29T06:58:50;20.88;55.40
5938;DHT22;2994;51.220;4.412;2022-07-29T07:01:15;20.91;57.00
5938;DHT22;2994;51.220;4.412;2022-07-29T07:03:41;20.93;55.53
5938;DHT22;2994;51.220;4.412;2022-07-29T07:06:07;20.96;56.03
5938;DHT22;2994;51.220;4.412;2022-07-29T07:08:32;20.99;56.14
5938;DHT22;2994;51.220;4.412;2022-07-29T07:10:58;21.03;56.13
5938;DHT22;2994;51.220;4.412;2022-07-29T07:13:24;21.06;54.99
5938;DHT22;2994;51.220;4.412;2022-07-29T07:15:49;21.13;55.46
5938;DHT22;2994;51.220;4.412;2022-07-29T07:18:16;21.17;56.19
5938;DHT22;2994;51.220;4.412;2022-07-29T07:20:42;21.20;56.03
5938;DHT22;2994;51.220;4.412;2022-07-29T07:23:08;21.23;57.17
5938;DHT22;2994;51.220;4.412;2022-07-29T07:25:33;21.25;56.54
5938;DHT22;2994;51.220;4.412;2022-07-29T07:27:59;21.30;55.73
5938;DHT22;2994;51.220;4.412;2022-07-29T07:30:24;21.35;55.72
5938;DHT22;2994;51.220;4.412;2022-07-29T07:32:50;21.38;56.11
5938;DHT22;2994;51.220;4.412;2022-07-29T07:35:15;21.43;55.46
5938;DHT22;2994;51.220;4.412;2022-07-29T07:37:41;21.49;55.14
5938;DHT22;2994;51.220;4.412;2022-07-29T07:40:08;21.53;55.80
5938;DHT22;2994;51.220;4.412;2022-07-29T07:42:34;21.57;56.04
5938;DHT22;2994;51.220;4.412;2022-07-29T07:45:00;21.65;57.29
5938;DHT22;2994;51.220;4.412;2022-07-29T07:47:25;21.68;54.08
5938;DHT22;2994;51.220;4.412;2022-07-29T07:49:52;21.76;56.36
5938;DHT22;2994;51.220;4.412;2022-07-29T07:52:19;21.80;55.03
5938;DHT22;2994;51.220;4.412;2022-07-29T07:54:45;21.88;56.24
5938;DHT22;2994;51.220;4.412;2022-07-29T07:57:11;21.94;55.98
5938;DHT22;2994;51.220;4.412;2022-07-29T07:59:38;22.02;56.52
5938;DHT22;2994;51.220;4.412;2022-07-29T08:02:04;22.11;55.38
5938;DHT22;2994;51.220;4.412;2022-07-29T08:04:29;22.19;55.26
5938;DHT22;2994;51.220;4.412;2022-07-29T08:06:56;22.27;51.14
5938;DHT22;2994;51.220;4.412;2022-07-29T08:09:23;22.42;52.15
5938;DHT22;2994;51.220;4.412;2022-07-29T08:11:48;22.52;53.91
5938;DHT22;2994;51.220;4.412;2022-07-29T08:14:14;22.67;54.14
5938;DHT22;2994;51.220;4.412;2022-07-29T08:16:40;22.82;52.17
5938;DHT22;2994;51.220;4.412;2022-07-29T08:19:06;22.93;50.39
5938;DHT22;2994;51.220;4.412;2022-07-29T08:21:32;22.95;49.62
5938;DHT22;2994;51.220;4.412;2022-07-29T08:23:57;23.09;50.63
5938;DHT22;2994;51.220;4.412;2022-07-29T08:26:42;23.18;49.78
5938;DHT22;2994;51.220;4.412;2022-07-29T08:29:08;23.34;49.10
5938;DHT22;2994;51.220;4.412;2022-07-29T08:31:35;23.76;51.75
5938;DHT22;2994;51.220;4.412;2022-07-29T08:34:00;24.14;47.24
5938;DHT22;2994;51.220;4.412;2022-07-29T08:36:26;24.12;48.36
5938;DHT22;2994;51.220;4.412;2022-07-29T08:38:52;24.02;46.99
5938;DHT22;2994;51.220;4.412;2022-07-29T08:41:20;24.10;46.70
5938;DHT22;2994;51.220;4.412;2022-07-29T08:43:47;24.14;46.60
5938;DHT22;2994;51.220;4.412;2022-07-29T08:46:12;24.20;49.11
5938;DHT22;2994;51.220;4.412;2022-07-29T08:48:42;24.14;47.57
5938;DHT22;2994;51.220;4.412;2022-07-29T08:51:13;24.19;47.74
5938;DHT22;2994;51.220;4.412;2022-07-29T08:53:42;24.32;50.18
5938;DHT22;2994;51.220;4.412;2022-07-29T08:56:11;24.39;47.17
5938;DHT22;2994;51.220;4.412;2022-07-29T08:58:36;24.40;48.24
5938;DHT22;2994;51.220;4.412;2022-07-29T09:01:03;24.47;48.51
5938;DHT22;2994;51.220;4.412;2022-07-29T09:03:32;24.39;45.19
5938;DHT22;2994;51.220;4.412;2022-07-29T09:06:00;24.53;45.04
5938;DHT22;2994;51.220;4.412;2022-07-29T09:08:26;24.54;45.24
5938;DHT22;2994;51.220;4.412;2022-07-29T09:10:52;24.66;47.21
5938;DHT22;2994;51.220;4.412;2022-07-29T09:16:06;24.77;45.57
5938;DHT22;2994;51.220;4.412;2022-07-29T09:18:42;24.86;45.67
5938;DHT22;2994;51.220;4.412;2022-07-29T09:21:10;24.91;43.32
5938;DHT22;2994;51.220;4.412;2022-07-29T09:24:03;25.06;43.18
5938;DHT22;2994;51.220;4.412;2022-07-29T09:26:30;25.13;43.81
5938;DHT22;2994;51.220;4.412;2022-07-29T09:28:56;25.23;44.73
5938;DHT22;2994;51.220;4.412;2022-07-29T09:31:49;25.34;44.02
5938;DHT22;2994;51.220;4.412;2022-07-29T09:34:25;25.38;41.68
5938;DHT22;2994;51.220;4.412;2022-07-29T09:36:52;25.45;40.79
5938;DHT22;2994;51.220;4.412;2022-07-29T09:39:44;25.47;41.06
5938;DHT22;2994;51.220;4.412;2022-07-29T09:42:11;25.51;43.61
5938;DHT22;2994;51.220;4.412;2022-07-29T09:44:48;25.63;42.50
5938;DHT22;2994;51.220;4.412;2022-07-29T09:47:16;25.75;42.12
5938;DHT22;2994;51.220;4.412;2022-07-29T09:49:58;25.83;40.75
5938;DHT22;2994;51.220;4.412;2022-07-29T09:52:25;25.84;41.20
5938;DHT22;2994;51.220;4.412;2022-07-29T09:54:51;26.01;42.47
5938;DHT22;2994;51.220;4.412;2022-07-29T09:57:26;26.12;40.15
5938;DHT22;2994;51.220;4.412;2022-07-29T09:59:59;26.04;38.36
5938;DHT22;2994;51.220;4.412;2022-07-29T10:02:30;26.11;38.40
5938;DHT22;2994;51.220;4.412;2022-07-29T10:04:56;26.11;40.55
5938;DHT22;2994;51.220;4.412;2022-07-29T10:07:22;26.08;38.36
5938;DHT22;2994;51.220;4.412;2022-07-29T10:09:56;26.07;40.68
5938;DHT22;2994;51.220;4.412;2022-07-29T10:23:18;26.75;36.09
5938;DHT22;2994;51.220;4.412;2022-07-29T10:28:25;26.98;36.88
5938;DHT22;2994;51.220;4.412;2022-07-29T10:30:59;27.06;38.34
5938;DHT22;2994;51.220;4.412;2022-07-29T10:34:11;27.10;37.25
5938;DHT22;2994;51.220;4.412;2022-07-29T10:36:38;27.16;33.77
5938;DHT22;2994;51.220;4.412;2022-07-29T10:44:35;27.36;34.73
5938;DHT22;2994;51.220;4.412;2022-07-29T10:47:04;27.29;32.91
5938;DHT22;2994;51.220;4.412;2022-07-29T10:49:30;27.41;34.99
5938;DHT22;2994;51.220;4.412;2022-07-29T10:51:56;27.44;35.34
5938;DHT22;2994;51.220;4.412;2022-07-29T10:59:49;27.54;35.85
5938;DHT22;2994;51.220;4.412;2022-07-29T11:05:13;27.46;34.03
5938;DHT22;2994;51.220;4.412;2022-07-29T11:10:44;27.50;32.97
5938;DHT22;2994;51.220;4.412;2022-07-29T11:13:13;27.56;31.96
5938;DHT22;2994;51.220;4.412;2022-07-29T11:16:07;27.53;35.56
5938;DHT22;2994;51.220;4.412;2022-07-29T11:18:33;27.64;36.11
5938;DHT22;2994;51.220;4.412;2022-07-29T11:21:01;27.35;35.90
5938;DHT22;2994;51.220;4.412;2022-07-29T11:23:33;27.40;37.48
5938;DHT22;2994;51.220;4.412;2022-07-29T11:31:34;27.89;35.32
5938;DHT22;2994;51.220;4.412;2022-07-29T11:34:32;28.03;35.18
5938;DHT22;2994;51.220;4.412;2022-07-29T11:39:36;27.95;33.01
5938;DHT22;2994;51.220;4.412;2022-07-29T11:47:21;28.08;32.74
5938;DHT22;2994;51.220;4.412;2022-07-29T11:49:47;28.01;33.76
5938;DHT22;2994;51.220;4.412;2022-07-29T11:52:13;28.10;32.40
5938;DHT22;2994;51.220;4.412;2022-07-29T11:54:41;28.23;33.35
5938;DHT22;2994;51.220;4.412;2022-07-29T11:57:08;28.09;33.05
5938;DHT22;2994;51.220;4.412;2022-07-29T11:59:41;28.20;31.99
5938;DHT22;2994;51.220;4.412;2022-07-29T12:02:07;28.29;32.19
5938;DHT22;2994;51.220;4.412;2022-07-29T12:04:34;28.38;32.52
5938;DHT22;2994;51.220;4.412;2022-07-29T12:06:59;28.43;35.02
5938;DHT22;2994;51.220;4.412;2022-07-29T12:09:25;28.46;31.51
5938;DHT22;2994;51.220;4.412;2022-07-29T12:12:00;28.56;33.52
5938;DHT22;2994;51.220;4.412;2022-07-29T12:14:36;28.56;35.67
5938;DHT22;2994;51.220;4.412;2022-07-29T12:17:01;28.85;33.10
5938;DHT22;2994;51.220;4.412;2022-07-29T12:19:27;28.86;31.80
5938;DHT22;2994;51.220;4.412;2022-07-29T12:21:54;28.92;32.63
5938;DHT22;2994;51.220;4.412;2022-07-29T12:24:20;28.71;32.35
5938;DHT22;2994;51.220;4.412;2022-07-29T12:26:57;28.75;30.11
5938;DHT22;2994;51.220;4.412;2022-07-29T12:29:22;28.69;30.94
5938;DHT22;2994;51.220;4.412;2022-07-29T12:31:52;28.91;31.28
5938;DHT22;2994;51.220;4.412;2022-07-29T12:34:20;29.13;30.48
5938;DHT22;2994;51.220;4.412;2022-07-29T12:36:47;29.12;31.81
5938;DHT22;2994;51.220;4.412;2022-07-29T12:39:13;29.26;28.82
5938;DHT22;2994;51.220;4.412;2022-07-29T12:41:40;29.36;29.45
5938;DHT22;2994;51.220;4.412;2022-07-29T12:44:06;29.53;30.33
5938;DHT22;2994;51.220;4.412;2022-07-29T12:46:31;29.53;30.35
5938;DHT22;2994;51.220;4.412;2022-07-29T12:48:56;29.74;29.43
5938;DHT22;2994;51.220;4.412;2022-07-29T12:51:31;29.56;32.08
5938;DHT22;2994;51.220;4.412;2022-07-29T12:54:11;29.77;30.99
5938;DHT22;2994;51.220;4.412;2022-07-29T12:56:39;30.01;27.99
5938;DHT22;2994;51.220;4.412;2022-07-29T12:59:18;29.96;29.03
5938;DHT22;2994;51.220;4.412;2022-07-29T13:01:45;29.93;27.87
5938;DHT22;2994;51.220;4.412;2022-07-29T13:04:27;29.93;29.65
5938;DHT22;2994;51.220;4.412;2022-07-29T13:07:23;30.35;29.01
5938;DHT22;2994;51.220;4.412;2022-07-29T13:09:48;30.50;27.42
5938;DHT22;2994;51.220;4.412;2022-07-29T13:12:14;30.39;29.23
5938;DHT22;2994;51.220;4.412;2022-07-29T13:14:40;30.66;26.49
5938;DHT22;2994;51.220;4.412;2022-07-29T13:17:08;30.50;27.15
5938;DHT22;2994;51.220;4.412;2022-07-29T13:19:43;30.65;27.56
5938;DHT22;2994;51.220;4.412;2022-07-29T13:22:13;30.64;25.20
5938;DHT22;2994;51.220;4.412;2022-07-29T13:24:50;30.16;26.31
5938;DHT22;2994;51.220;4.412;2022-07-29T13:27:18;30.13;26.86
5938;DHT22;2994;51.220;4.412;2022-07-29T13:29:44;30.24;26.35
5938;DHT22;2994;51.220;4.412;2022-07-29T13:32:10;30.50;26.80
5938;DHT22;2994;51.220;4.412;2022-07-29T13:34:36;30.59;26.41
5938;DHT22;2994;51.220;4.412;2022-07-29T13:37:01;30.39;27.24
5938;DHT22;2994;51.220;4.412;2022-07-29T13:39:27;30.44;26.44
5938;DHT22;2994;51.220;4.412;2022-07-29T13:41:52;30.21;26.64
5938;DHT22;2994;51.220;4.412;2022-07-29T13:44:18;30.36;26.91
5938;DHT22;2994;51.220;4.412;2022-07-29T13:46:43;30.13;26.51
5938;DHT22;2994;51.220;4.412;2022-07-29T13:49:09;30.37;27.20
5938;DHT22;2994;51.220;4.412;2022-07-29T13:51:36;30.26;26.48
5938;DHT22;2994;51.220;4.412;2022-07-29T13:54:01;30.42;26.77
5938;DHT22;2994;51.220;4.412;2022-07-29T13:56:26;30.91;25.98
5938;DHT22;2994;51.220;4.412;2022-07-29T13:58:52;31.24;26.30
5938;DHT22;2994;51.220;4.412;2022-07-29T14:01:17;31.16;24.65
5938;DHT22;2994;51.220;4.412;2022-07-29T14:03:43;31.42;25.20
5938;DHT22;2994;51.220;4.412;2022-07-29T14:06:08;31.63;26.56
5938;DHT22;2994;51.220;4.412;2022-07-29T14:08:34;31.37;24.48
5938;DHT22;2994;51.220;4.412;2022-07-29T14:10:59;31.48;24.73
5938;DHT22;2994;51.220;4.412;2022-07-29T14:13:25;31.52;24.35
5938;DHT22;2994;51.220;4.412;2022-07-29T14:15:50;31.86;26.11
5938;DHT22;2994;51.220;4.412;2022-07-29T14:18:16;31.54;24.28
5938;DHT22;2994;51.220;4.412;2022-07-29T14:20:41;31.90;26.07
5938;DHT22;2994;51.220;4.412;2022-07-29T14:23:06;31.96;24.96
5938;DHT22;2994;51.220;4.412;2022-07-29T14:25:32;32.23;24.46
5938;DHT22;2994;51.220;4.412;2022-07-29T14:27:57;32.30;25.14
5938;DHT22;2994;51.220;4.412;2022-07-29T14:30:23;32.10;25.55
5938;DHT22;2994;51.220;4.412;2022-07-29T14:32:48;32.23;24.85
5938;DHT22;2994;51.220;4.412;2022-07-29T14:35:14;32.22;24.40
5938;DHT22;2994;51.220;4.412;2022-07-29T14:37:39;32.43;23.66
5938;DHT22;2994;51.220;4.412;2022-07-29T14:40:05;32.53;24.20
5938;DHT22;2994;51.220;4.412;2022-07-29T14:42:31;32.53;24.27
5938;DHT22;2994;51.220;4.412;2022-07-29T14:44:57;32.63;24.66
5938;DHT22;2994;51.220;4.412;2022-07-29T14:47:22;32.81;25.87
5938;DHT22;2994;51.220;4.412;2022-07-29T14:49:48;32.75;24.94
5938;DHT22;2994;51.220;4.412;2022-07-29T14:52:14;32.91;24.43
5938;DHT22;2994;51.220;4.412;2022-07-29T14:54:40;32.90;22.72
5938;DHT22;2994;51.220;4.412;2022-07-29T14:57:05;32.78;23.10
5938;DHT22;2994;51.220;4.412;2022-07-29T14:59:31;32.74;22.72
5938;DHT22;2994;51.220;4.412;2022-07-29T15:01:56;32.79;23.78
5938;DHT22;2994;51.220;4.412;2022-07-29T15:04:22;32.75;22.99
5938;DHT22;2994;51.220;4.412;2022-07-29T15:06:48;32.82;23.50
5938;DHT22;2994;51.220;4.412;2022-07-29T15:09:13;32.97;24.11
5938;DHT22;2994;51.220;4.412;2022-07-29T15:11:38;33.27;22.81
5938;DHT22;2994;51.220;4.412;2022-07-29T15:14:05;33.63;22.72
5938;DHT22;2994;51.220;4.412;2022-07-29T15:16:30;33.70;20.84
5938;DHT22;2994;51.220;4.412;2022-07-29T15:18:56;37.57;18.89
5938;DHT22;2994;51.220;4.412;2022-07-29T15:21:23;42.61;14.63
5938;DHT22;2994;51.220;4.412;2022-07-29T15:23:48;45.61;10.83
5938;DHT22;2994;51.220;4.412;2022-07-29T15:26:14;47.42;8.09
5938;DHT22;2994;51.220;4.412;2022-07-29T15:28:39;48.90;6.89
5938;DHT22;2994;51.220;4.412;2022-07-29T15:31:05;50.03;6.43
5938;DHT22;2994;51.220;4.412;2022-07-29T15:33:30;51.66;5.57
5938;DHT22;2994;51.220;4.412;2022-07-29T15:35:56;53.52;5.34
5938;DHT22;2994;51.220;4.412;2022-07-29T15:38:21;54.71;3.39
5938;DHT22;2994;51.220;4.412;2022-07-29T15:40:47;56.80;1.94
5938;DHT22;2994;51.220;4.412;2022-07-29T15:43:13;58.01;1.58
5938;DHT22;2994;51.220;4.412;2022-07-29T15:45:40;58.70;3.03
5938;DHT22;2994;51.220;4.412;2022-07-29T15:48:07;59.58;2.45
5938;DHT22;2994;51.220;4.412;2022-07-29T15:50:33;60.33;2.19
5938;DHT22;2994;51.220;4.412;2022-07-29T15:53:00;60.69;1.49
5938;DHT22;2994;51.220;4.412;2022-07-29T15:55:26;59.49;1.55
5938;DHT22;2994;51.220;4.412;2022-07-29T15:57:51;59.73;1.34
5938;DHT22;2994;51.220;4.412;2022-07-29T16:00:17;60.15;1.83
5938;DHT22;2994;51.220;4.412;2022-07-29T16:02:43;60.60;1.64
5938;DHT22;2994;51.220;4.412;2022-07-29T16:05:09;60.88;1.68
5938;DHT22;2994;51.220;4.412;2022-07-29T16:07:34;61.16;1.58
5938;DHT22;2994;51.220;4.412;2022-07-29T16:10:00;61.22;1.52
5938;DHT22;2994;51.220;4.412;2022-07-29T16:12:25;60.86;0.86
5938;DHT22;2994;51.220;4.412;2022-07-29T16:14:50;60.00;0.98
5938;DHT22;2994;51.220;4.412;2022-07-29T16:17:16;55.35;0.81
5938;DHT22;2994;51.220;4.412;2022-07-29T16:19:42;50.68;3.53
5938;DHT22;2994;51.220;4.412;2022-07-29T16:22:08;47.02;5.92
5938;DHT22;2994;51.220;4.412;2022-07-29T16:24:33;43.59;9.10
5938;DHT22;2994;51.220;4.412;2022-07-29T16:26:59;41.69;10.90
5938;DHT22;2994;51.220;4.412;2022-07-29T16:29:24;40.16;13.29
5938;DHT22;2994;51.220;4.412;2022-07-29T16:31:50;38.77;14.47
5938;DHT22;2994;51.220;4.412;2022-07-29T16:34:17;37.54;15.50
5938;DHT22;2994;51.220;4.412;2022-07-29T16:36:42;36.44;17.90
5938;DHT22;2994;51.220;4.412;2022-07-29T16:39:08;35.59;19.15
5938;DHT22;2994;51.220;4.412;2022-07-29T16:41:35;34.84;19.60
5938;DHT22;2994;51.220;4.412;2022-07-29T16:44:00;34.20;20.67
5938;DHT22;2994;51.220;4.412;2022-07-29T16:46:26;33.32;22.04
5938;DHT22;2994;51.220;4.412;2022-07-29T16:48:51;32.72;23.17
5938;DHT22;2994;51.220;4.412;2022-07-29T16:51:17;32.04;24.03
5938;DHT22;2994;51.220;4.412;2022-07-29T16:53:42;31.73;24.24
5938;DHT22;2994;51.220;4.412;2022-07-29T16:56:09;31.41;24.75
5938;DHT22;2994;51.220;4.412;2022-07-29T16:58:35;30.86;25.69
5938;DHT22;2994;51.220;4.412;2022-07-29T17:01:00;30.77;26.33
5938;DHT22;2994;51.220;4.412;2022-07-29T17:03:26;30.53;27.64